sensor_id;sensor_type;location;lat;lon;timestamp;temperature;humidity
10010;DHT22;5044;48.652;9.250;2022-09-02T10:17:33;24.80;57.20
10010;DHT22;5044;48.652;9.250;2022-09-02T10:20:09;24.90;57.20
10010;DHT22;5044;48.652;9.250;2022-09-02T10:23:01;25.00;58.40
10010;DHT22;5044;48.652;9.250;2022-09-02T10:25:39;25.00;55.90
10010;DHT22;5044;48.652;9.250;2022-09-02T10:28:16;25.20;57.20
10010;DHT22;5044;48.652;9.250;2022-09-02T10:30:54;25.10;56.20
10010;DHT22;5044;48.652;9.250;2022-09-02T10:33:35;25.10;54.80
10010;DHT22;5044;48.652;9.250;2022-09-02T10:36:09;25.30;55.70
10010;DHT22;5044;48.652;9.250;2022-09-02T10:38:39;25.30;54.10
10010;DHT22;5044;48.652;9.250;2022-09-02T10:41:17;25.40;54.10
10010;DHT22;5044;48.652;9.250;2022-09-02T10:44:06;25.30;54.00
10010;DHT22;5044;48.652;9.250;2022-09-02T10:46:46;25.30;52.50
10010;DHT22;5044;48.652;9.250;2022-09-02T10:49:24;25.40;52.90
10010;DHT22;5044;48.652;9.250;2022-09-02T10:52:00;25.40;53.70
10010;DHT22;5044;48.652;9.250;2022-09-02T10:54:41;25.50;51.70
10010;DHT22;5044;48.652;9.250;2022-09-02T10:57:13;25.60;53.30
10010;DHT22;5044;48.652;9.250;2022-09-02T10:59:42;25.50;50.90
10010;DHT22;5044;48.652;9.250;2022-09-02T11:02:17;25.60;52.60
10010;DHT22;5044;48.652;9.250;2022-09-02T11:04:50;25.70;52.70
10010;DHT22;5044;48.652;9.250;2022-09-02T11:07:22;25.60;52.10
10010;DHT22;5044;48.652;9.250;2022-09-02T11:09:53;25.80;52.80
10010;DHT22;5044;48.652;9.250;2022-09-02T11:12:29;25.80;53.10
10010;DHT22;5044;48.652;9.250;2022-09-02T11:15:03;25.80;51.80
10010;DHT22;5044;48.652;9.250;2022-09-02T11:17:36;25.90;52.70
10010;DHT22;5044;48.652;9.250;2022-09-02T11:20:11;25.90;51.90
10010;DHT22;5044;48.652;9.250;2022-09-02T11:22:44;26.10;53.50
10010;DHT22;5044;48.652;9.250;2022-09-02T11:25:21;26.30;52.60
10010;DHT22;5044;48.652;9.250;2022-09-02T11:27:53;26.30;51.40
10010;DHT22;5044;48.652;9.250;2022-09-02T11:30:23;26.30;52.20
10010;DHT22;5044;48.652;9.250;2022-09-02T11:32:57;26.20;51.70
10010;DHT22;5044;48.652;9.250;2022-09-02T11:35:36;26.00;50.80
10010;DHT22;5044;48.652;9.250;2022-09-02T11:38:05;26.20;51.90
10010;DHT22;5044;48.652;9.250;2022-09-02T11:40:42;26.00;50.40
10010;DHT22;5044;48.652;9.250;2022-09-02T11:43:25;26.20;51.90
10010;DHT22;5044;48.652;9.250;2022-09-02T11:46:29;26.30;51.60
10010;DHT22;5044;48.652;9.250;2022-09-02T11:49:34;26.60;52.80
10010;DHT22;5044;48.652;9.250;2022-09-02T11:52:16;26.70;51.90
10010;DHT22;5044;48.652;9.250;2022-09-02T11:54:46;26.70;51.40
10010;DHT22;5044;48.652;9.250;2022-09-02T11:57:20;26.90;51.80
10010;DHT22;5044;48.652;9.250;2022-09-02T12:00:27;27.00;50.80
10010;DHT22;5044;48.652;9.250;2022-09-02T12:03:00;26.60;50.60
10010;DHT22;5044;48.652;9.250;2022-09-02T12:05:49;26.60;50.10
10010;DHT22;5044;48.652;9.250;2022-09-02T12:11:48;26.90;50.90
10010;DHT22;5044;48.652;9.250;2022-09-02T12:17:44;27.10;52.10
10010;DHT22;5044;48.652;9.250;2022-09-02T12:24:01;27.20;51.00
10010;DHT22;5044;48.652;9.250;2022-09-02T12:26:29;27.20;50.20
10010;DHT22;5044;48.652;9.250;2022-09-02T12:29:32;27.40;49.90
10010;DHT22;5044;48.652;9.250;2022-09-02T12:31:59;27.40;49.10
10010;DHT22;5044;48.652;9.250;2022-09-02T12:34:55;27.20;49.30
10010;DHT22;5044;48.652;9.250;2022-09-02T12:37:53;27.30;50.10
10010;DHT22;5044;48.652;9.250;2022-09-02T12:40:34;27.60;51.20
10010;DHT22;5044;48.652;9.250;2022-09-02T12:43:06;27.60;49.80
10010;DHT22;5044;48.652;9.250;2022-09-02T12:45:43;27.80;51.30
10010;DHT22;5044;48.652;9.250;2022-09-02T12:48:13;28.10;51.10
10010;DHT22;5044;48.652;9.250;2022-09-02T12:50:53;28.20;50.70
10010;DHT22;5044;48.652;9.250;2022-09-02T12:53:28;28.30;50.80
10010;DHT22;5044;48.652;9.250;2022-09-02T12:55:59;28.10;50.10
10010;DHT22;5044;48.652;9.250;2022-09-02T12:58:32;28.00;50.10
10010;DHT22;5044;48.652;9.250;2022-09-02T13:01:08;27.80;50.20
10010;DHT22;5044;48.652;9.250;2022-09-02T13:07:03;27.90;50.30
10010;DHT22;5044;48.652;9.250;2022-09-02T13:09:57;28.10;49.70
10010;DHT22;5044;48.652;9.250;2022-09-02T13:15:43;28.30;50.70
10010;DHT22;5044;48.652;9.250;2022-09-02T13:30:17;28.40;49.70
10010;DHT22;5044;48.652;9.250;2022-09-02T13:32:55;28.40;49.80
10010;DHT22;5044;48.652;9.250;2022-09-02T13:35:26;28.50;49.10
10010;DHT22;5044;48.652;9.250;2022-09-02T13:37:55;28.40;48.10
10010;DHT22;5044;48.652;9.250;2022-09-02T13:40:25;28.60;49.50
10010;DHT22;5044;48.652;9.250;2022-09-02T13:42:54;28.50;50.10
10010;DHT22;5044;48.652;9.250;2022-09-02T13:45:22;28.60;49.50
10010;DHT22;5044;48.652;9.250;2022-09-02T13:47:51;28.30;48.10
10010;DHT22;5044;48.652;9.250;2022-09-02T13:50:20;28.30;48.90
10010;DHT22;5044;48.652;9.250;2022-09-02T13:52:52;28.40;48.10
10010;DHT22;5044;48.652;9.250;2022-09-02T13:55:20;28.50;48.90
10010;DHT22;5044;48.652;9.250;2022-09-02T13:57:54;28.40;47.30
10010;DHT22;5044;48.652;9.250;2022-09-02T14:00:30;28.30;48.30
10010;DHT22;5044;48.652;9.250;2022-09-02T14:03:00;28.40;48.60
10010;DHT22;5044;48.652;9.250;2022-09-02T14:05:28;28.40;48.20
10010;DHT22;5044;48.652;9.250;2022-09-02T14:07:59;28.40;48.60
10010;DHT22;5044;48.652;9.250;2022-09-02T14:10:29;28.30;47.70
10010;DHT22;5044;48.652;9.250;2022-09-02T14:13:00;28.30;48.60
10010;DHT22;5044;48.652;9.250;2022-09-02T14:15:29;28.40;48.10
10010;DHT22;5044;48.652;9.250;2022-09-02T14:18:11;28.50;49.70
10010;DHT22;5044;48.652;9.250;2022-09-02T14:20:52;28.30;47.30
10010;DHT22;5044;48.652;9.250;2022-09-02T14:23:21;28.60;49.30
10010;DHT22;5044;48.652;9.250;2022-09-02T14:25:51;28.30;48.00
10010;DHT22;5044;48.652;9.250;2022-09-02T14:28:20;28.30;48.10
10010;DHT22;5044;48.652;9.250;2022-09-02T14:30:57;28.40;48.00
10010;DHT22;5044;48.652;9.250;2022-09-02T14:33:38;28.30;48.70
10010;DHT22;5044;48.652;9.250;2022-09-02T14:36:07;28.30;46.50
10010;DHT22;5044;48.652;9.250;2022-09-02T14:38:48;28.40;47.90
10010;DHT22;5044;48.652;9.250;2022-09-02T14:41:19;28.30;47.00
10010;DHT22;5044;48.652;9.250;2022-09-02T14:43:49;28.00;46.50
10010;DHT22;5044;48.652;9.250;2022-09-02T14:46:23;28.20;49.10
10010;DHT22;5044;48.652;9.250;2022-09-02T14:48:54;28.20;48.70
10010;DHT22;5044;48.652;9.250;2022-09-02T14:51:27;28.20;50.00
10010;DHT22;5044;48.652;9.250;2022-09-02T14:53:58;28.20;48.80
10010;DHT22;5044;48.652;9.250;2022-09-02T14:56:45;28.00;48.90
10010;DHT22;5044;48.652;9.250;2022-09-02T14:59:13;28.00;48.70
10010;DHT22;5044;48.652;9.250;2022-09-02T15:01:42;27.90;48.10
10010;DHT22;5044;48.652;9.250;2022-09-02T15:04:11;27.90;49.10
10010;DHT22;5044;48.652;9.250;2022-09-02T15:06:39;28.00;49.80
10010;DHT22;5044;48.652;9.250;2022-09-02T15:09:07;27.90;47.90
10010;DHT22;5044;48.652;9.250;2022-09-02T15:11:35;27.80;49.00
10010;DHT22;5044;48.652;9.250;2022-09-02T15:14:03;27.80;49.40
10010;DHT22;5044;48.652;9.250;2022-09-02T15:16:30;27.80;48.70
10010;DHT22;5044;48.652;9.250;2022-09-02T15:18:57;27.70;49.10
10010;DHT22;5044;48.652;9.250;2022-09-02T15:21:25;27.80;50.50
10010;DHT22;5044;48.652;9.250;2022-09-02T15:23:52;27.60;48.50
10010;DHT22;5044;48.652;9.250;2022-09-02T15:26:20;27.30;49.40
10010;DHT22;5044;48.652;9.250;2022-09-02T15:28:47;27.30;49.70
10010;DHT22;5044;48.652;9.250;2022-09-02T15:31:15;27.30;50.10
10010;DHT22;5044;48.652;9.250;2022-09-02T15:33:48;27.30;50.20
10010;DHT22;5044;48.652;9.250;2022-09-02T15:36:16;27.20;49.40
10010;DHT22;5044;48.652;9.250;2022-09-02T15:38:43;27.00;49.40
10010;DHT22;5044;48.652;9.250;2022-09-02T15:41:12;27.20;52.00
10010;DHT22;5044;48.652;9.250;2022-09-02T15:43:41;27.20;51.30
10010;DHT22;5044;48.652;9.250;2022-09-02T15:46:19;26.90;51.60
10010;DHT22;5044;48.652;9.250;2022-09-02T15:48:47;26.90;51.40
10010;DHT22;5044;48.652;9.250;2022-09-02T15:51:16;26.70;51.20
10010;DHT22;5044;48.652;9.250;2022-09-02T15:53:43;26.60;51.20
10010;DHT22;5044;48.652;9.250;2022-09-02T15:56:17;26.10;49.10
10010;DHT22;5044;48.652;9.250;2022-09-02T15:58:46;26.00;50.00
10010;DHT22;5044;48.652;9.250;2022-09-02T16:01:13;26.00;50.70
10010;DHT22;5044;48.652;9.250;2022-09-02T16:03:41;26.10;53.00
10010;DHT22;5044;48.652;9.250;2022-09-02T16:06:08;25.90;51.60
10010;DHT22;5044;48.652;9.250;2022-09-02T16:08:35;25.80;52.00
10010;DHT22;5044;48.652;9.250;2022-09-02T16:11:07;25.70;51.80
10010;DHT22;5044;48.652;9.250;2022-09-02T16:13:36;25.60;53.70
10010;DHT22;5044;48.652;9.250;2022-09-02T16:16:07;25.70;54.10
10010;DHT22;5044;48.652;9.250;2022-09-02T16:18:36;25.40;54.00
10010;DHT22;5044;48.652;9.250;2022-09-02T16:21:03;25.40;54.60
10010;DHT22;5044;48.652;9.250;2022-09-02T16:23:30;24.90;52.00
10010;DHT22;5044;48.652;9.250;2022-09-02T16:26:12;25.10;56.40
10010;DHT22;5044;48.652;9.250;2022-09-02T16:28:42;24.90;55.50
10010;DHT22;5044;48.652;9.250;2022-09-02T16:31:12;24.90;57.10
10010;DHT22;5044;48.652;9.250;2022-09-02T16:33:42;24.90;58.70
10010;DHT22;5044;48.652;9.250;2022-09-02T16:36:10;24.90;59.20
10010;DHT22;5044;48.652;9.250;2022-09-02T16:38:37;24.80;59.30
10010;DHT22;5044;48.652;9.250;2022-09-02T16:41:04;24.70;59.50
10010;DHT22;5044;48.652;9.250;2022-09-02T16:43:31;24.50;57.90
10010;DHT22;5044;48.652;9.250;2022-09-02T16:45:59;24.40;59.30
10010;DHT22;5044;48.652;9.250;2022-09-02T16:48:31;24.50;60.70
10010;DHT22;5044;48.652;9.250;2022-09-02T16:51:01;24.40;59.30
10010;DHT22;5044;48.652;9.250;2022-09-02T16:53:29;24.30;59.60
10010;DHT22;5044;48.652;9.250;2022-09-02T16:55:56;24.20;58.80
10010;DHT22;5044;48.652;9.250;2022-09-02T16:58:23;24.20;59.50
10010;DHT22;5044;48.652;9.250;2022-09-02T17:00:50;24.10;60.80
10010;DHT22;5044;48.652;9.250;2022-09-02T17:03:17;23.90;59.70
10010;DHT22;5044;48.652;9.250;2022-09-02T17:05:45;23.90;60.50
10010;DHT22;5044;48.652;9.250;2022-09-02T17:08:14;23.80;62.20
10010;DHT22;5044;48.652;9.250;2022-09-02T17:10:41;23.60;62.20
10010;DHT22;5044;48.652;9.250;2022-09-02T17:13:08;23.60;62.60
10010;DHT22;5044;48.652;9.250;2022-09-02T17:15:35;23.50;66.20
10010;DHT22;5044;48.652;9.250;2022-09-02T17:18:02;23.40;64.00
10010;DHT22;5044;48.652;9.250;2022-09-02T17:20:29;23.30;60.80
10010;DHT22;5044;48.652;9.250;2022-09-02T17:22:57;23.20;65.20
10010;DHT22;5044;48.652;9.250;2022-09-02T17:25:24;23.00;64.50
10010;DHT22;5044;48.652;9.250;2022-09-02T17:27:51;22.90;63.20
10010;DHT22;5044;48.652;9.250;2022-09-02T17:30:18;22.90;62.70
10010;DHT22;5044;48.652;9.250;2022-09-02T17:32:48;22.80;67.60
10010;DHT22;5044;48.652;9.250;2022-09-02T17:35:16;22.80;70.80
10010;DHT22;5044;48.652;9.250;2022-09-02T17:37:43;22.70;66.50
10010;DHT22;5044;48.652;9.250;2022-09-02T17:40:13;22.70;66.20
10010;DHT22;5044;48.652;9.250;2022-09-02T17:42:54;22.60;71.50
10010;DHT22;5044;48.652;9.250;2022-09-02T17:45:21;22.50;68.10
10010;DHT22;5044;48.652;9.250;2022-09-02T17:47:48;22.30;69.90
10010;DHT22;5044;48.652;9.250;2022-09-02T17:50:15;22.30;71.80
10010;DHT22;5044;48.652;9.250;2022-09-02T17:52:42;22.20;72.50
10010;DHT22;5044;48.652;9.250;2022-09-02T17:55:09;22.20;74.60
10010;DHT22;5044;48.652;9.250;2022-09-02T17:57:47;22.00;67.90
10010;DHT22;5044;48.652;9.250;2022-09-02T18:00:16;22.00;74.40
10010;DHT22;5044;48.652;9.250;2022-09-02T18:05:53;21.80;75.40
10010;DHT22;5044;48.652;9.250;2022-09-02T18:08:30;21.70;71.20
10010;DHT22;5044;48.652;9.250;2022-09-02T18:11:00;21.60;74.50
10010;DHT22;5044;48.652;9.250;2022-09-02T18:13:37;21.60;75.20
10010;DHT22;5044;48.652;9.250;2022-09-02T18:16:16;21.40;75.90
10010;DHT22;5044;48.652;9.250;2022-09-02T18:18:50;21.50;76.20
10010;DHT22;5044;48.652;9.250;2022-09-02T18:21:25;21.30;76.50
10010;DHT22;5044;48.652;9.250;2022-09-02T18:23:59;21.20;77.10
10010;DHT22;5044;48.652;9.250;2022-09-02T18:26:43;21.10;73.10
10010;DHT22;5044;48.652;9.250;2022-09-02T18:29:23;21.10;78.90
10010;DHT22;5044;48.652;9.250;2022-09-02T18:31:59;21.10;78.90
10010;DHT22;5044;48.652;9.250;2022-09-02T18:34:40;21.10;76.90
10010;DHT22;5044;48.652;9.250;2022-09-02T18:37:20;20.90;77.90
10010;DHT22;5044;48.652;9.250;2022-09-02T20:27:02;18.80;88.10
10010;DHT22;5044;48.652;9.250;2022-09-02T20:30:07;18.80;87.70
10010;DHT22;5044;48.652;9.250;2022-09-02T20:32:50;18.70;89.10
10010;DHT22;5044;48.652;9.250;2022-09-02T20:35:46;18.60;89.10
10010;DHT22;5044;48.652;9.250;2022-09-02T20:38:45;18.60;88.90
10010;DHT22;5044;48.652;9.250;2022-09-02T20:41:23;18.50;89.60
10010;DHT22;5044;48.652;9.250;2022-09-02T20:44:20;18.50;89.80
10010;DHT22;5044;48.652;9.250;2022-09-02T20:47:01;18.50;88.50
10010;DHT22;5044;48.652;9.250;2022-09-02T20:49:48;18.50;89.60
10010;DHT22;5044;48.652;9.250;2022-09-02T20:52:36;18.40;88.80
10010;DHT22;5044;48.652;9.250;2022-09-02T20:55:11;18.30;89.00
10010;DHT22;5044;48.652;9.250;2022-09-02T20:57:55;18.30;87.80
10010;DHT22;5044;48.652;9.250;2022-09-02T21:00:43;18.30;89.30
10010;DHT22;5044;48.652;9.250;2022-09-02T21:03:13;18.30;89.70
10010;DHT22;5044;48.652;9.250;2022-09-02T21:05:44;18.20;88.90
10010;DHT22;5044;48.652;9.250;2022-09-02T21:08:29;18.10;90.00
10010;DHT22;5044;48.652;9.250;2022-09-02T21:10:59;18.10;90.10
10010;DHT22;5044;48.652;9.250;2022-09-02T21:13:34;18.10;90.00
10010;DHT22;5044;48.652;9.250;2022-09-02T21:16:08;18.10;90.00
10010;DHT22;5044;48.652;9.250;2022-09-02T21:18:41;18.10;90.10
10010;DHT22;5044;48.652;9.250;2022-09-02T21:21:19;18.00;90.10
10010;DHT22;5044;48.652;9.250;2022-09-02T21:23:51;18.10;90.20
10010;DHT22;5044;48.652;9.250;2022-09-02T21:26:28;17.90;89.40
10010;DHT22;5044;48.652;9.250;2022-09-02T21:29:03;17.80;90.20
10010;DHT22;5044;48.652;9.250;2022-09-02T21:31:42;17.80;90.40
10010;DHT22;5044;48.652;9.250;2022-09-02T21:34:17;17.80;90.90
10010;DHT22;5044;48.652;9.250;2022-09-02T21:36:50;17.60;90.00
10010;DHT22;5044;48.652;9.250;2022-09-02T21:39:19;17.60;90.50
10010;DHT22;5044;48.652;9.250;2022-09-02T21:41:52;17.60;90.60
10010;DHT22;5044;48.652;9.250;2022-09-02T21:44:37;17.50;90.70
10010;DHT22;5044;48.652;9.250;2022-09-02T21:47:17;17.50;90.50
10010;DHT22;5044;48.652;9.250;2022-09-02T21:49:56;17.40;90.90
10010;DHT22;5044;48.652;9.250;2022-09-02T21:52:34;17.40;90.90
10010;DHT22;5044;48.652;9.250;2022-09-02T21:55:09;17.30;90.80
10010;DHT22;5044;48.652;9.250;2022-09-02T22:00:44;17.30;92.90
10010;DHT22;5044;48.652;9.250;2022-09-02T22:03:27;17.20;91.20
10010;DHT22;5044;48.652;9.250;2022-09-02T22:06:05;17.10;92.20
10010;DHT22;5044;48.652;9.250;2022-09-02T22:08:53;17.10;92.10
10010;DHT22;5044;48.652;9.250;2022-09-02T22:11:28;17.00;91.80
10010;DHT22;5044;48.652;9.250;2022-09-02T22:14:00;17.00;91.00
10010;DHT22;5044;48.652;9.250;2022-09-02T22:16:38;17.00;91.00
10010;DHT22;5044;48.652;9.250;2022-09-02T22:19:12;17.00;93.00
10010;DHT22;5044;48.652;9.250;2022-09-02T22:21:45;16.90;95.20
10010;DHT22;5044;48.652;9.250;2022-09-02T22:24:15;16.80;94.40
10010;DHT22;5044;48.652;9.250;2022-09-02T22:26:47;16.90;93.70
10010;DHT22;5044;48.652;9.250;2022-09-02T22:29:20;16.90;93.60
10010;DHT22;5044;48.652;9.250;2022-09-02T22:31:57;16.90;95.20
10010;DHT22;5044;48.652;9.250;2022-09-02T22:34:29;16.80;93.90
10010;DHT22;5044;48.652;9.250;2022-09-02T22:37:02;16.80;94.50
10010;DHT22;5044;48.652;9.250;2022-09-02T22:39:36;16.80;93.90
10010;DHT22;5044;48.652;9.250;2022-09-02T22:42:13;16.80;92.40
10010;DHT22;5044;48.652;9.250;2022-09-02T22:44:46;16.80;93.00
10010;DHT22;5044;48.652;9.250;2022-09-02T22:47:33;16.80;93.90
10010;DHT22;5044;48.652;9.250;2022-09-02T22:50:25;16.70;93.30
10010;DHT22;5044;48.652;9.250;2022-09-02T22:53:14;16.80;93.50
10010;DHT22;5044;48.652;9.250;2022-09-02T22:55:56;16.70;92.90
10010;DHT22;5044;48.652;9.250;2022-09-02T23:01:44;16.70;92.10
10010;DHT22;5044;48.652;9.250;2022-09-02T23:04:37;16.70;91.70
10010;DHT22;5044;48.652;9.250;2022-09-02T23:07:09;16.70;91.80
10010;DHT22;5044;48.652;9.250;2022-09-02T23:09:37;16.70;91.50
10010;DHT22;5044;48.652;9.250;2022-09-02T23:12:13;16.70;91.90
10010;DHT22;5044;48.652;9.250;2022-09-02T23:14:48;16.70;91.80
10010;DHT22;5044;48.652;9.250;2022-09-02T23:17:29;16.70;91.80
10010;DHT22;5044;48.652;9.250;2022-09-02T23:20:10;16.80;91.30
10010;DHT22;5044;48.652;9.250;2022-09-02T23:22:51;16.80;91.70
10010;DHT22;5044;48.652;9.250;2022-09-02T23:25:34;16.80;91.50
10010;DHT22;5044;48.652;9.250;2022-09-02T23:28:11;16.80;91.00
10010;DHT22;5044;48.652;9.250;2022-09-02T23:30:53;16.80;91.30
10010;DHT22;5044;48.652;9.250;2022-09-02T23:33:46;16.80;91.70
10010;DHT22;5044;48.652;9.250;2022-09-02T23:36:18;16.70;91.30
10010;DHT22;5044;48.652;9.250;2022-09-02T23:41:43;16.80;91.50
10010;DHT22;5044;48.652;9.250;2022-09-02T23:44:12;16.80;91.20
10010;DHT22;5044;48.652;9.250;2022-09-02T23:46:45;16.80;91.60
10010;DHT22;5044;48.652;9.250;2022-09-02T23:49:19;16.80;91.20
10010;DHT22;5044;48.652;9.250;2022-09-02T23:51:56;16.80;91.40
10010;DHT22;5044;48.652;9.250;2022-09-02T23:54:45;16.80;91.00
10010;DHT22;5044;48.652;9.250;2022-09-02T23:57:28;16.80;90.70
